createdAt,value
2016-06-12T00:00:23.026Z,1006.18
2016-06-12T00:01:22.983Z,1006.18
2016-06-12T00:02:23.001Z,1006.18
2016-06-12T00:03:22.895Z,1006.19
2016-06-12T00:04:22.851Z,1006.15
2016-06-12T00:05:25.791Z,1006.19
2016-06-12T00:06:22.748Z,1006.17
2016-06-12T00:07:22.720Z,1006.2
2016-06-12T00:08:25.676Z,1006.17
2016-06-12T00:09:22.642Z,1006.19
2016-06-12T00:10:22.653Z,1006.18
2016-06-12T00:11:22.631Z,1006.17
2016-06-12T00:12:22.625Z,1006.18
2016-06-12T00:13:22.619Z,1006.13
2016-06-12T00:14:22.598Z,1006.13
2016-06-12T00:15:22.551Z,1006.17
2016-06-12T00:16:22.538Z,1006.16
2016-06-12T00:17:22.507Z,1006.14
2016-06-12T00:18:22.461Z,1006.15
2016-06-12T00:19:22.441Z,1006.13
2016-06-12T00:20:22.715Z,1006.15
2016-06-12T00:21:22.348Z,1006.12
2016-06-12T00:22:22.309Z,1006.11
2016-06-12T00:23:22.270Z,1006.1
2016-06-12T00:24:22.229Z,1006.09
2016-06-12T00:25:22.375Z,1006.05
2016-06-12T00:26:22.145Z,1006.09
2016-06-12T00:27:22.104Z,1006.09
2016-06-12T00:28:22.062Z,1006.07
2016-06-12T00:29:22.003Z,1006.09
2016-06-12T00:30:21.976Z,1006.06
2016-06-12T00:31:21.932Z,1006.06
2016-06-12T00:32:21.874Z,1006.08
2016-06-12T00:33:21.830Z,1006.07
2016-06-12T00:34:21.787Z,1006.07
2016-06-12T00:35:21.759Z,1006.06
2016-06-12T00:36:21.699Z,1006.02
2016-06-12T00:37:21.656Z,1006.1
2016-06-12T00:38:21.644Z,1006.05
2016-06-12T00:39:21.568Z,1006.04
2016-06-12T00:40:21.604Z,1006.03
2016-06-12T00:41:21.465Z,1006.01
2016-06-12T00:42:21.438Z,1006
2016-06-12T00:43:21.393Z,1006
2016-06-12T00:44:21.334Z,1006.02
2016-06-12T00:45:21.291Z,1006.01
2016-06-12T00:46:21.247Z,1005.98
2016-06-12T00:47:24.218Z,1006
2016-06-12T00:48:21.159Z,1005.98
2016-06-12T00:49:21.115Z,1006
2016-06-12T00:50:21.072Z,1005.98
2016-06-12T00:51:21.027Z,1005.99
2016-06-12T00:52:20.969Z,1005.94
2016-06-12T00:53:21.143Z,1005.94
2016-06-12T00:54:20.881Z,1005.93
2016-06-12T00:55:20.853Z,1005.94
2016-06-12T00:56:20.792Z,1005.95
2016-06-12T00:57:20.749Z,1005.93
2016-06-12T00:58:20.706Z,1005.92
2016-06-12T00:59:23.693Z,1005.92
2016-06-12T01:00:20.618Z,1005.94
2016-06-12T01:01:23.574Z,1005.94
2016-06-12T01:02:20.530Z,1005.93
2016-06-12T01:03:20.486Z,1005.95
2016-06-12T01:04:20.443Z,1005.97
2016-06-12T01:05:20.398Z,1005.96
2016-06-12T01:06:20.355Z,1005.95
2016-06-12T01:07:20.295Z,1005.97
2016-06-12T01:08:23.268Z,1005.96
2016-06-12T01:09:20.207Z,1005.94
2016-06-12T01:10:23.383Z,1005.94
2016-06-12T01:11:20.324Z,1005.95
2016-06-12T01:12:23.076Z,1005.9
2016-06-12T01:13:20.033Z,1005.9
2016-06-12T01:14:20.192Z,1005.92
2016-06-12T01:15:19.945Z,1005.88
2016-06-12T01:16:19.902Z,1005.88
2016-06-12T01:17:19.857Z,1005.88
2016-06-12T01:18:19.814Z,1005.91
2016-06-12T01:19:19.770Z,1005.9
2016-06-12T01:20:20.335Z,1005.9
2016-06-12T01:21:19.666Z,1005.89
2016-06-12T01:22:19.638Z,1005.88
2016-06-12T01:23:19.579Z,1005.88
2016-06-12T01:24:19.536Z,1005.89
2016-06-12T01:25:19.492Z,1005.85
2016-06-12T01:26:19.448Z,1005.83
2016-06-12T01:27:25.670Z,1005.82
2016-06-12T01:28:19.360Z,1005.8
2016-06-12T01:29:19.316Z,1005.84
2016-06-12T01:30:19.272Z,1005.84
2016-06-12T01:31:19.229Z,1005.84
2016-06-12T01:32:19.185Z,1005.84
2016-06-12T01:33:19.156Z,1005.87
2016-06-12T01:34:19.082Z,1005.88
2016-06-12T01:35:19.460Z,1005.89
2016-06-12T01:36:22.010Z,1005.88
2016-06-12T01:37:18.951Z,1005.86
2016-06-12T01:38:21.922Z,1005.9
2016-06-12T01:39:18.863Z,1005.87
2016-06-12T01:40:18.819Z,1005.86
2016-06-12T01:41:18.776Z,1005.84
2016-06-12T01:42:18.731Z,1005.85
2016-06-12T01:43:18.687Z,1005.82
2016-06-12T01:44:18.643Z,1005.85
2016-06-12T01:45:18.788Z,1005.81
2016-06-12T01:46:18.557Z,1005.77
2016-06-12T01:47:18.512Z,1005.77
2016-06-12T01:48:18.453Z,1005.76
2016-06-12T01:49:18.409Z,1005.8
2016-06-12T01:50:21.381Z,1005.74
2016-06-12T01:51:18.322Z,1005.75
2016-06-12T01:52:18.278Z,1005.75
2016-06-12T01:53:18.234Z,1005.78
2016-06-12T01:54:18.190Z,1005.71
2016-06-12T01:55:18.147Z,1005.76
2016-06-12T01:56:18.290Z,1005.76
2016-06-12T01:57:18.058Z,1005.74
2016-06-12T01:58:18.000Z,1005.72
2016-06-12T01:59:17.971Z,1005.7
2016-06-12T02:00:17.912Z,1005.69
2016-06-12T02:01:17.868Z,1005.68
2016-06-12T02:02:20.840Z,1005.67
2016-06-12T02:03:17.781Z,1005.67
2016-06-12T02:04:17.737Z,1005.64
2016-06-12T02:05:17.693Z,1005.64
2016-06-12T02:06:17.649Z,1005.66
2016-06-12T02:07:17.605Z,1005.57
2016-06-12T02:08:17.577Z,1005.59
2016-06-12T02:09:17.503Z,1005.54
2016-06-12T02:10:17.474Z,1005.55
2016-06-12T02:11:17.431Z,1005.58
2016-06-12T02:12:17.371Z,1005.57
2016-06-12T02:13:17.343Z,1005.54
2016-06-12T02:14:17.283Z,1005.55
2016-06-12T02:15:17.239Z,1005.55
2016-06-12T02:16:17.196Z,1005.54
2016-06-12T02:17:17.152Z,1005.54
2016-06-12T02:18:17.108Z,1005.56
2016-06-12T02:19:17.064Z,1005.54
2016-06-12T02:20:17.020Z,1005.56
2016-06-12T02:21:16.976Z,1005.54
2016-06-12T02:22:19.949Z,1005.57
2016-06-12T02:23:16.873Z,1005.56
2016-06-12T02:24:16.891Z,1005.56
2016-06-12T02:25:19.801Z,1005.59
2016-06-12T02:26:16.742Z,1005.56
2016-06-12T02:27:16.698Z,1005.55
2016-06-12T02:28:16.653Z,1005.54
2016-06-12T02:29:16.611Z,1005.54
2016-06-12T02:30:16.567Z,1005.53
2016-06-12T02:31:16.507Z,1005.55
2016-06-12T02:32:16.463Z,1005.55
2016-06-12T02:33:16.436Z,1005.54
2016-06-12T02:34:19.391Z,1005.54
2016-06-12T02:35:16.535Z,1005.52
2016-06-12T02:36:16.288Z,1005.54
2016-06-12T02:37:16.244Z,1005.55
2016-06-12T02:38:16.217Z,1005.56
2016-06-12T02:39:16.157Z,1005.51
2016-06-12T02:40:16.113Z,1005.53
2016-06-12T02:41:16.068Z,1005.55
2016-06-12T02:42:16.026Z,1005.54
2016-06-12T02:43:15.966Z,1005.53
2016-06-12T02:44:15.938Z,1005.52
2016-06-12T02:45:15.878Z,1005.52
2016-06-12T02:46:15.834Z,1005.54
2016-06-12T02:47:15.791Z,1005.58
2016-06-12T02:48:18.762Z,1005.52
2016-06-12T02:49:15.906Z,1005.54
2016-06-12T02:50:15.659Z,1005.54
2016-06-12T02:51:15.615Z,1005.55
2016-06-12T02:52:15.572Z,1005.57
2016-06-12T02:53:15.512Z,1005.57
2016-06-12T02:54:15.483Z,1005.55
2016-06-12T02:55:15.425Z,1005.57
2016-06-12T02:56:15.397Z,1005.54
2016-06-12T02:57:15.336Z,1005.54
2016-06-12T02:58:15.293Z,1005.56
2016-06-12T02:59:15.249Z,1005.57
2016-06-12T03:00:15.206Z,1005.53
2016-06-12T03:01:15.162Z,1005.53
2016-06-12T03:02:15.118Z,1005.53
2016-06-12T03:03:15.074Z,1005.53
2016-06-12T03:04:15.014Z,1005.54
2016-06-12T03:05:14.972Z,1005.5
2016-06-12T03:06:15.505Z,1005.55
2016-06-12T03:07:14.883Z,1005.58
2016-06-12T03:08:14.840Z,1005.57
2016-06-12T03:09:14.796Z,1005.51
2016-06-12T03:10:14.767Z,1005.5
2016-06-12T03:11:14.708Z,1005.52
2016-06-12T03:12:14.664Z,1005.51
2016-06-12T03:13:14.621Z,1005.53
2016-06-12T03:14:14.577Z,1005.55
2016-06-12T03:15:14.517Z,1005.54
2016-06-12T03:16:14.474Z,1005.55
2016-06-12T03:17:14.429Z,1005.54
2016-06-12T03:18:14.589Z,1005.54
2016-06-12T03:19:14.342Z,1005.51
2016-06-12T03:20:17.313Z,1005.52
2016-06-12T03:21:14.255Z,1005.55
2016-06-12T03:22:17.210Z,1005.53
2016-06-12T03:23:17.182Z,1005.52
2016-06-12T03:24:14.123Z,1005.49
2016-06-12T03:25:14.079Z,1005.49
2016-06-12T03:26:14.036Z,1005.51
2016-06-12T03:27:13.976Z,1005.53
2016-06-12T03:28:14.135Z,1005.53
2016-06-12T03:29:13.888Z,1005.51
2016-06-12T03:30:13.861Z,1005.54
2016-06-12T03:31:13.801Z,1005.53
2016-06-12T03:32:13.757Z,1005.52
2016-06-12T03:33:13.714Z,1005.54
2016-06-12T03:34:13.670Z,1005.56
2016-06-12T03:35:17.220Z,1005.52
2016-06-12T03:36:13.566Z,1005.53
2016-06-12T03:37:16.538Z,1005.52
2016-06-12T03:38:13.494Z,1005.57
2016-06-12T03:39:13.451Z,1005.53
2016-06-12T03:40:13.391Z,1005.51
2016-06-12T03:41:13.347Z,1005.55
2016-06-12T03:42:13.304Z,1005.55
2016-06-12T03:43:13.259Z,1005.56
2016-06-12T03:44:16.231Z,1005.59
2016-06-12T03:45:13.172Z,1005.6
2016-06-12T03:46:13.128Z,1005.58
2016-06-12T03:47:13.085Z,1005.63
2016-06-12T03:48:16.041Z,1005.65
2016-06-12T03:49:12.981Z,1005.68
2016-06-12T03:50:12.938Z,1005.6
2016-06-12T03:51:13.581Z,1005.67
2016-06-12T03:52:12.850Z,1005.65
2016-06-12T03:53:12.806Z,1005.63
2016-06-12T03:54:12.762Z,1005.67
2016-06-12T03:55:12.719Z,1005.69
2016-06-12T03:56:15.690Z,1005.68
2016-06-12T03:57:12.631Z,1005.71
2016-06-12T03:58:12.587Z,1005.71
2016-06-12T03:59:12.543Z,1005.73
2016-06-12T04:00:12.484Z,1005.73
2016-06-12T04:01:12.440Z,1005.76
2016-06-12T04:02:12.396Z,1005.74
2016-06-12T04:03:12.352Z,1005.73
2016-06-12T04:04:12.512Z,1005.74
2016-06-12T04:05:12.265Z,1005.73
2016-06-12T04:06:12.221Z,1005.75
2016-06-12T04:07:12.177Z,1005.75
2016-06-12T04:08:12.133Z,1005.76
2016-06-12T04:09:12.168Z,1005.71
2016-06-12T04:10:12.108Z,1005.73
2016-06-12T04:11:15.205Z,1005.69
2016-06-12T04:12:14.958Z,1005.72
2016-06-12T04:13:14.914Z,1005.7
2016-06-12T04:14:14.871Z,1005.74
2016-06-12T04:15:11.811Z,1005.73
2016-06-12T04:16:11.768Z,1005.74
2016-06-12T04:17:11.724Z,1005.76
2016-06-12T04:18:11.680Z,1005.77
2016-06-12T04:19:11.635Z,1005.76
2016-06-12T04:20:11.592Z,1005.75
2016-06-12T04:21:11.548Z,1005.76
2016-06-12T04:22:11.567Z,1005.76
2016-06-12T04:23:14.445Z,1005.75
2016-06-12T04:24:11.604Z,1005.79
2016-06-12T04:25:11.374Z,1005.73
2016-06-12T04:26:11.313Z,1005.76
2016-06-12T04:27:11.269Z,1005.75
2016-06-12T04:28:11.226Z,1005.73
2016-06-12T04:29:11.183Z,1005.74
2016-06-12T04:30:11.139Z,1005.75
2016-06-12T04:31:11.095Z,1005.74
2016-06-12T04:32:11.050Z,1005.73
2016-06-12T04:33:11.007Z,1005.75
2016-06-12T04:34:10.963Z,1005.76
2016-06-12T04:35:10.919Z,1005.76
2016-06-12T04:36:13.876Z,1005.74
2016-06-12T04:37:13.832Z,1005.79
2016-06-12T04:38:13.789Z,1005.82
2016-06-12T04:39:10.728Z,1005.83
2016-06-12T04:40:10.684Z,1005.82
2016-06-12T04:41:10.642Z,1005.77
2016-06-12T04:42:10.598Z,1005.8
2016-06-12T04:43:10.757Z,1005.78
2016-06-12T04:44:13.526Z,1005.79
2016-06-12T04:45:10.466Z,1005.83
2016-06-12T04:46:10.422Z,1005.79
2016-06-12T04:47:13.378Z,1005.81
2016-06-12T04:48:13.334Z,1005.79
2016-06-12T04:49:13.291Z,1005.79
2016-06-12T04:50:10.231Z,1005.78
2016-06-12T04:51:10.203Z,1005.79
2016-06-12T04:52:10.144Z,1005.83
2016-06-12T04:53:10.099Z,1005.79
2016-06-12T04:54:10.056Z,1005.78
2016-06-12T04:55:10.013Z,1005.77
2016-06-12T04:56:09.969Z,1005.8
2016-06-12T04:57:09.924Z,1005.81
2016-06-12T04:58:09.881Z,1005.8
2016-06-12T04:59:12.853Z,1005.81
2016-06-12T05:00:12.793Z,1005.8
2016-06-12T05:01:12.749Z,1005.84
2016-06-12T05:02:09.690Z,1005.8
2016-06-12T05:03:09.646Z,1005.82
2016-06-12T05:04:09.618Z,1005.79
2016-06-12T05:05:09.574Z,1005.8
2016-06-12T05:06:09.625Z,1005.82
2016-06-12T05:07:09.472Z,1005.83
2016-06-12T05:08:09.427Z,1005.86
2016-06-12T05:09:09.383Z,1005.88
2016-06-12T05:10:09.324Z,1005.86
2016-06-12T05:11:09.296Z,1005.9
2016-06-12T05:12:09.236Z,1005.89
2016-06-12T05:13:09.208Z,1005.9
2016-06-12T05:14:09.149Z,1005.93
2016-06-12T05:15:09.121Z,1005.89
2016-06-12T05:16:09.061Z,1005.91
2016-06-12T05:17:09.017Z,1005.91
2016-06-12T05:18:08.973Z,1005.91
2016-06-12T05:19:08.930Z,1005.94
2016-06-12T05:20:08.886Z,1005.91
2016-06-12T05:21:11.842Z,1005.93
2016-06-12T05:22:08.783Z,1005.93
2016-06-12T05:23:08.739Z,1005.92
2016-06-12T05:24:11.710Z,1005.93
2016-06-12T05:25:08.652Z,1005.93
2016-06-12T05:26:08.607Z,1005.93
2016-06-12T05:27:08.642Z,1005.92
2016-06-12T05:28:11.536Z,1005.92
2016-06-12T05:29:08.476Z,1005.92
2016-06-12T05:30:08.448Z,1005.9
2016-06-12T05:31:08.389Z,1005.92
2016-06-12T05:32:08.344Z,1005.93
2016-06-12T05:33:08.302Z,1005.94
2016-06-12T05:34:08.241Z,1005.91
2016-06-12T05:35:08.214Z,1005.94
2016-06-12T05:36:08.731Z,1005.92
2016-06-12T05:37:08.126Z,1005.91
2016-06-12T05:38:08.067Z,1005.89
2016-06-12T05:39:08.023Z,1005.92
2016-06-12T05:40:07.979Z,1005.91
2016-06-12T05:41:07.935Z,1005.96
2016-06-12T05:42:07.891Z,1005.96
2016-06-12T05:43:07.847Z,1005.95
2016-06-12T05:44:07.819Z,1005.96
2016-06-12T05:45:10.775Z,1005.99
2016-06-12T05:46:07.716Z,1006
2016-06-12T05:47:07.672Z,1005.99
2016-06-12T05:48:07.612Z,1006.03
2016-06-12T05:49:07.568Z,1005.99
2016-06-12T05:50:10.540Z,1006
2016-06-12T05:51:07.497Z,1006
2016-06-12T05:52:07.453Z,1005.97
2016-06-12T05:53:07.441Z,1005.96
2016-06-12T05:54:07.350Z,1005.94
2016-06-12T05:55:10.322Z,1005.97
2016-06-12T05:56:07.262Z,1005.96
2016-06-12T05:57:07.218Z,1005.93
2016-06-12T05:58:07.175Z,1005.98
2016-06-12T05:59:07.131Z,1005.94
2016-06-12T06:00:07.290Z,1005.95
2016-06-12T06:01:07.028Z,1005.94
2016-06-12T06:02:06.983Z,1006
2016-06-12T06:03:06.940Z,1006.02
2016-06-12T06:04:06.896Z,1006.02
2016-06-12T06:05:06.853Z,1005.98
2016-06-12T06:06:07.323Z,1006.02
2016-06-12T06:07:06.765Z,1006.02
2016-06-12T06:08:06.721Z,1006
2016-06-12T06:09:06.677Z,1006.02
2016-06-12T06:10:06.633Z,1006.04
2016-06-12T06:11:09.793Z,1006.02
2016-06-12T06:12:15.546Z,1006.03
2016-06-12T06:13:09.502Z,1006.04
2016-06-12T06:14:09.473Z,1006
2016-06-12T06:15:06.602Z,1006.04
2016-06-12T06:16:06.354Z,1006.05
2016-06-12T06:17:06.311Z,1006.03
2016-06-12T06:18:06.268Z,1006.05
2016-06-12T06:19:06.224Z,1006.04
2016-06-12T06:20:06.164Z,1006.06
2016-06-12T06:21:09.135Z,1006.09
2016-06-12T06:22:06.342Z,1006.06
2016-06-12T06:23:06.048Z,1006.07
2016-06-12T06:24:05.989Z,1006.05
2016-06-12T06:25:08.961Z,1006.06
2016-06-12T06:26:08.918Z,1006.06
2016-06-12T06:27:05.857Z,1006.07
2016-06-12T06:28:05.813Z,1006.1
2016-06-12T06:29:05.770Z,1006.08
2016-06-12T06:30:05.789Z,1006.12
2016-06-12T06:31:08.683Z,1006.12
2016-06-12T06:32:05.638Z,1006.11
2016-06-12T06:33:08.595Z,1006.14
2016-06-12T06:34:05.535Z,1006.07
2016-06-12T06:35:08.506Z,1006.13
2016-06-12T06:36:05.448Z,1006.13
2016-06-12T06:37:05.404Z,1006.09
2016-06-12T06:38:05.360Z,1006.12
2016-06-12T06:39:05.316Z,1006.14
2016-06-12T06:40:05.273Z,1006.09
2016-06-12T06:41:05.229Z,1006.06
2016-06-12T06:42:05.184Z,1006.1
2016-06-12T06:43:05.329Z,1006.09
2016-06-12T06:44:05.081Z,1006.09
2016-06-12T06:45:05.038Z,1006.08
2016-06-12T06:46:05.010Z,1006.1
2016-06-12T06:47:04.950Z,1006.13
2016-06-12T06:48:04.907Z,1006.11
2016-06-12T06:49:04.862Z,1006.12
2016-06-12T06:50:04.819Z,1006.13
2016-06-12T06:51:05.275Z,1006.15
2016-06-12T06:52:04.715Z,1006.15
2016-06-12T06:53:04.687Z,1006.15
2016-06-12T06:54:04.628Z,1006.15
2016-06-12T06:55:07.584Z,1006.15
2016-06-12T06:56:04.556Z,1006.13
2016-06-12T06:57:04.716Z,1006.13
2016-06-12T06:58:04.453Z,1006.13
2016-06-12T06:59:04.408Z,1006.13
2016-06-12T07:00:07.381Z,1006.07
2016-06-12T07:01:04.525Z,1006.08
2016-06-12T07:02:04.278Z,1006.13
2016-06-12T07:03:04.234Z,1006.13
2016-06-12T07:04:04.190Z,1006.12
2016-06-12T07:05:04.130Z,1006.15
2016-06-12T07:06:04.087Z,1006.13
2016-06-12T07:07:04.044Z,1006.09
2016-06-12T07:08:04.000Z,1006.09
2016-06-12T07:09:03.956Z,1006.1
2016-06-12T07:10:03.927Z,1006.11
2016-06-12T07:11:03.868Z,1006.14
2016-06-12T07:12:03.871Z,1006.16
2016-06-12T07:13:03.780Z,1006.16
2016-06-12T07:14:03.736Z,1006.11
2016-06-12T07:15:03.693Z,1006.13
2016-06-12T07:16:03.649Z,1006.17
2016-06-12T07:17:03.605Z,1006.21
2016-06-12T07:18:03.561Z,1006.22
2016-06-12T07:19:03.517Z,1006.19
2016-06-12T07:20:03.473Z,1006.18
2016-06-12T07:21:03.414Z,1006.17
2016-06-12T07:22:03.370Z,1006.19
2016-06-12T07:23:03.327Z,1006.18
2016-06-12T07:24:06.299Z,1006.18
2016-06-12T07:25:03.238Z,1006.14
2016-06-12T07:26:03.195Z,1006.17
2016-06-12T07:27:06.166Z,1006.19
2016-06-12T07:28:06.122Z,1006.16
2016-06-12T07:29:03.064Z,1006.16
2016-06-12T07:30:03.020Z,1006.16
2016-06-12T07:31:02.976Z,1006.17
2016-06-12T07:32:02.932Z,1006.17
2016-06-12T07:33:02.888Z,1006.13
2016-06-12T07:34:02.829Z,1006.17
2016-06-12T07:35:02.801Z,1006.13
2016-06-12T07:36:02.741Z,1006.12
2016-06-12T07:37:02.916Z,1006.15
2016-06-12T07:38:02.654Z,1006.15
2016-06-12T07:39:02.610Z,1006.13
2016-06-12T07:40:02.567Z,1006.12
2016-06-12T07:41:02.523Z,1006.1
2016-06-12T07:42:02.479Z,1006.15
2016-06-12T07:43:02.435Z,1006.13
2016-06-12T07:44:02.391Z,1006.13
2016-06-12T07:45:02.347Z,1006.11
2016-06-12T07:46:02.303Z,1006.12
2016-06-12T07:47:02.259Z,1006.13
2016-06-12T07:48:02.216Z,1006.13
2016-06-12T07:49:02.172Z,1006.09
2016-06-12T07:50:02.128Z,1006.1
2016-06-12T07:51:02.084Z,1006.1
2016-06-12T07:52:02.587Z,1006.08
2016-06-12T07:53:01.997Z,1006.07
2016-06-12T07:54:05.047Z,1006.06
2016-06-12T07:55:02.097Z,1006.05
2016-06-12T07:56:01.866Z,1006.04
2016-06-12T07:57:02.009Z,1006.04
2016-06-12T07:58:01.762Z,1006.05
2016-06-12T07:59:01.718Z,1006.01
2016-06-12T08:00:01.690Z,1006.06
2016-06-12T08:01:01.631Z,1006.05
2016-06-12T08:02:01.588Z,1006.04
2016-06-12T08:03:01.543Z,1006.07
2016-06-12T08:04:01.516Z,1006
2016-06-12T08:05:01.455Z,1006.04
2016-06-12T08:06:04.427Z,1006.07
2016-06-12T08:07:01.368Z,1006.03
2016-06-12T08:08:04.323Z,1006.05
2016-06-12T08:09:01.281Z,1006.12
2016-06-12T08:10:01.237Z,1006.12
2016-06-12T08:11:01.193Z,1006.05
2016-06-12T08:12:01.133Z,1006.02
2016-06-12T08:13:01.105Z,1006.06
2016-06-12T08:14:01.061Z,1006.04
2016-06-12T08:15:01.017Z,1006.05
2016-06-12T08:16:00.973Z,1006.1
2016-06-12T08:17:00.914Z,1006.08
2016-06-12T08:18:01.073Z,1006.07
2016-06-12T08:19:01.030Z,1006.16
2016-06-12T08:20:00.782Z,1006.11
2016-06-12T08:21:00.739Z,1006.05
2016-06-12T08:22:00.696Z,1006.08
2016-06-12T08:23:03.667Z,1006.04
2016-06-12T08:24:03.623Z,1006.06
2016-06-12T08:25:00.564Z,1006.02
2016-06-12T08:26:00.521Z,1006.08
2016-06-12T08:27:00.476Z,1006.04
2016-06-12T08:28:00.432Z,1006.04
2016-06-12T08:29:00.389Z,1006.01
2016-06-12T08:30:00.345Z,1006.01
2016-06-12T08:31:00.302Z,1006.03
2016-06-12T08:32:00.257Z,1006
2016-06-12T08:33:00.213Z,1006.01
2016-06-12T08:34:00.170Z,1006.04
2016-06-12T08:35:00.125Z,1006
2016-06-12T08:36:00.082Z,1006.01
2016-06-12T08:37:03.038Z,1006.03
2016-06-12T08:38:03.198Z,1006.09
2016-06-12T08:38:59.951Z,1006.11
2016-06-12T08:39:59.907Z,1006.08
2016-06-12T08:40:59.847Z,1006.09
2016-06-12T08:42:02.820Z,1006.06
2016-06-12T08:42:59.761Z,1006.07
2016-06-12T08:43:59.716Z,1006.05
2016-06-12T08:44:59.673Z,1006.06
2016-06-12T08:45:59.628Z,1006.04
2016-06-12T08:46:59.584Z,1006.05
2016-06-12T08:47:59.541Z,1006.06
2016-06-12T08:48:59.497Z,1006.06
2016-06-12T08:49:59.453Z,1006.13
2016-06-12T08:51:02.425Z,1006.09
2016-06-12T08:51:59.366Z,1006.11
2016-06-12T08:52:59.322Z,1006.08
2016-06-12T08:54:02.279Z,1006.1
2016-06-12T08:54:59.235Z,1006.08
2016-06-12T08:55:59.190Z,1006.09
2016-06-12T08:56:59.147Z,1006.1
2016-06-12T08:57:59.103Z,1006.1
2016-06-12T08:58:59.263Z,1006.09
2016-06-12T08:59:59.030Z,1006.1
2016-06-12T09:00:58.972Z,1006.11
2016-06-12T09:01:58.928Z,1006.15
2016-06-12T09:02:58.884Z,1006.13
2016-06-12T09:03:58.840Z,1006.12
2016-06-12T09:04:58.781Z,1006.11
2016-06-12T09:05:58.752Z,1006.08
2016-06-12T09:06:58.709Z,1006.09
2016-06-12T09:08:01.666Z,1006.14
2016-06-12T09:08:58.621Z,1006.1
2016-06-12T09:10:01.578Z,1006.12
2016-06-12T09:10:58.534Z,1006.1
2016-06-12T09:11:58.489Z,1006.15
2016-06-12T09:13:01.445Z,1006.11
2016-06-12T09:13:58.388Z,1006.05
2016-06-12T09:14:58.400Z,1006.11
2016-06-12T09:15:58.397Z,1006.13
2016-06-12T09:16:58.394Z,1006.14
2016-06-12T09:17:58.407Z,1006.1
2016-06-12T09:18:58.387Z,1006.08
2016-06-12T09:19:58.358Z,1006.11
2016-06-12T09:20:58.328Z,1006.11
2016-06-12T09:21:58.299Z,1006.07
2016-06-12T09:22:58.755Z,1006.06
2016-06-12T09:23:58.241Z,1006
2016-06-12T09:24:58.186Z,1006.08
2016-06-12T09:25:58.147Z,1006.06
2016-06-12T09:26:58.124Z,1006.07
2016-06-12T09:27:58.071Z,1006.06
2016-06-12T09:29:01.079Z,1006.06
2016-06-12T09:29:58.021Z,1006.07
2016-06-12T09:30:57.943Z,1006.1
2016-06-12T09:31:57.916Z,1006.04
2016-06-12T09:32:57.875Z,1006.07
2016-06-12T09:33:58.051Z,1006.06
2016-06-12T09:34:57.790Z,1006.03
2016-06-12T09:35:57.732Z,1005.97
2016-06-12T09:36:57.704Z,1005.99
2016-06-12T09:37:58.052Z,1006.01
2016-06-12T09:38:57.618Z,1006.07
2016-06-12T09:39:57.560Z,1006.06
2016-06-12T09:40:57.532Z,1006.05
2016-06-12T09:41:57.488Z,1006.02
2016-06-12T09:42:57.445Z,1006.04
2016-06-12T09:43:57.401Z,1005.99
2016-06-12T09:44:57.358Z,1006.02
2016-06-12T09:45:57.314Z,1005.96
2016-06-12T09:46:57.255Z,1005.94
2016-06-12T09:47:57.211Z,1005.9
2016-06-12T09:48:57.183Z,1005.93
2016-06-12T09:49:57.123Z,1005.94
2016-06-12T09:50:57.095Z,1005.92
2016-06-12T09:51:57.052Z,1005.93
2016-06-12T09:52:57.148Z,1005.87
2016-06-12T09:53:59.967Z,1005.89
2016-06-12T09:54:56.921Z,1005.88
2016-06-12T09:55:56.877Z,1005.89
2016-06-12T09:56:56.832Z,1005.85
2016-06-12T09:57:56.788Z,1005.89
2016-06-12T09:58:56.745Z,1005.87
2016-06-12T09:59:56.701Z,1005.88
2016-06-12T10:00:56.657Z,1005.94
2016-06-12T10:01:56.613Z,1005.89
2016-06-12T10:02:56.570Z,1005.83
2016-06-12T10:03:56.526Z,1005.86
2016-06-12T10:04:56.497Z,1005.87
2016-06-12T10:05:56.438Z,1005.86
2016-06-12T10:06:56.395Z,1005.81
2016-06-12T10:07:56.350Z,1005.81
2016-06-12T10:08:56.369Z,1005.79
2016-06-12T10:09:56.263Z,1005.76
2016-06-12T10:10:56.220Z,1005.73
2016-06-12T10:11:56.175Z,1005.73
2016-06-12T10:12:56.538Z,1005.73
2016-06-12T10:13:59.088Z,1005.69
2016-06-12T10:14:56.044Z,1005.7
2016-06-12T10:15:56.016Z,1005.64
2016-06-12T10:16:55.988Z,1005.69
2016-06-12T10:17:56.116Z,1005.68
2016-06-12T10:18:55.915Z,1005.67
2016-06-12T10:19:55.841Z,1005.72
2016-06-12T10:20:58.812Z,1005.7
2016-06-12T10:21:55.753Z,1005.67
2016-06-12T10:22:55.710Z,1005.67
2016-06-12T10:23:55.666Z,1005.64
2016-06-12T10:24:55.622Z,1005.63
2016-06-12T10:25:55.578Z,1005.68
2016-06-12T10:26:55.534Z,1005.61
2016-06-12T10:27:55.490Z,1005.56
2016-06-12T10:28:55.446Z,1005.53
2016-06-12T10:29:55.403Z,1005.58
2016-06-12T10:30:55.359Z,1005.5
2016-06-12T10:31:55.316Z,1005.54
2016-06-12T10:32:55.272Z,1005.5
2016-06-12T10:33:55.228Z,1005.47
2016-06-12T10:34:55.199Z,1005.49
2016-06-12T10:35:55.156Z,1005.53
2016-06-12T10:36:55.112Z,1005.51
2016-06-12T10:37:55.068Z,1005.5
2016-06-12T10:38:55.024Z,1005.49
2016-06-12T10:39:54.980Z,1005.49
2016-06-12T10:40:58.155Z,1005.42
2016-06-12T10:41:54.908Z,1005.47
2016-06-12T10:42:57.864Z,1005.44
2016-06-12T10:43:54.805Z,1005.45
2016-06-12T10:44:54.761Z,1005.46
2016-06-12T10:45:54.717Z,1005.42
2016-06-12T10:46:54.673Z,1005.49
2016-06-12T10:47:54.629Z,1005.45
2016-06-12T10:48:54.602Z,1005.43
2016-06-12T10:49:54.558Z,1005.41
2016-06-12T10:50:54.498Z,1005.43
2016-06-12T10:51:57.455Z,1005.42
2016-06-12T10:52:57.427Z,1005.39
2016-06-12T10:53:54.382Z,1005.41
2016-06-12T10:54:54.323Z,1005.36
2016-06-12T10:55:54.279Z,1005.35
2016-06-12T10:56:54.236Z,1005.33
2016-06-12T10:57:54.207Z,1005.35
2016-06-12T10:58:54.164Z,1005.38
2016-06-12T10:59:54.323Z,1005.41
2016-06-12T11:00:54.076Z,1005.42
2016-06-12T11:01:54.032Z,1005.42
2016-06-12T11:02:53.989Z,1005.44
2016-06-12T11:03:53.945Z,1005.43
2016-06-12T11:04:53.900Z,1005.43
2016-06-12T11:05:53.857Z,1005.42
2016-06-12T11:06:53.813Z,1005.42
2016-06-12T11:07:53.769Z,1005.46
2016-06-12T11:08:53.741Z,1005.42
2016-06-12T11:09:53.682Z,1005.45
2016-06-12T11:10:53.638Z,1005.43
2016-06-12T11:11:53.594Z,1005.43
2016-06-12T11:12:53.753Z,1005.34
2016-06-12T11:13:53.506Z,1005.39
2016-06-12T11:14:53.463Z,1005.39
2016-06-12T11:15:53.420Z,1005.38
2016-06-12T11:16:53.376Z,1005.43
2016-06-12T11:17:53.332Z,1005.4
2016-06-12T11:18:53.287Z,1005.36
2016-06-12T11:19:53.244Z,1005.38
2016-06-12T11:20:53.200Z,1005.4
2016-06-12T11:21:53.156Z,1005.4
2016-06-12T11:22:53.128Z,1005.39
2016-06-12T11:23:53.084Z,1005.39
2016-06-12T11:24:53.025Z,1005.43
2016-06-12T11:25:52.965Z,1005.4
2016-06-12T11:26:52.937Z,1005.44
2016-06-12T11:27:52.893Z,1005.42
2016-06-12T11:28:52.834Z,1005.42
2016-06-12T11:29:55.806Z,1005.43
2016-06-12T11:30:52.746Z,1005.35
2016-06-12T11:31:52.702Z,1005.34
2016-06-12T11:32:52.659Z,1005.3
2016-06-12T11:33:52.615Z,1005.29
2016-06-12T11:34:52.571Z,1005.26
2016-06-12T11:35:52.527Z,1005.27
2016-06-12T11:36:52.484Z,1005.29
2016-06-12T11:37:52.441Z,1005.23
2016-06-12T11:38:52.475Z,1005.21
2016-06-12T11:39:52.353Z,1005.2
2016-06-12T11:40:52.309Z,1005.16
2016-06-12T11:41:55.280Z,1005.2
2016-06-12T11:42:52.220Z,1005.13
2016-06-12T11:43:52.176Z,1005.09
2016-06-12T11:44:55.148Z,1005.11
2016-06-12T11:45:55.090Z,1005.1
2016-06-12T11:46:55.046Z,1005.08
2016-06-12T11:47:52.002Z,1005.05
2016-06-12T11:48:51.958Z,1005
2016-06-12T11:50:51.855Z,1005
2016-06-12T11:51:51.826Z,1005.05
2016-06-12T11:52:52.548Z,1004.99
2016-06-12T11:53:51.724Z,1004.98
2016-06-12T11:54:51.882Z,1005.01
2016-06-12T11:55:51.636Z,1005
2016-06-12T11:56:51.592Z,1005
2016-06-12T11:57:54.548Z,1005.02
2016-06-12T11:58:54.519Z,1005.03
2016-06-12T11:59:51.461Z,1004.98
2016-06-12T12:00:51.417Z,1004.97
2016-06-12T12:01:51.373Z,1004.97
2016-06-12T12:02:51.329Z,1004.96
2016-06-12T12:03:51.285Z,1004.95
2016-06-12T12:04:51.241Z,1004.91
2016-06-12T12:05:51.198Z,1004.9
2016-06-12T12:06:51.154Z,1004.89
2016-06-12T12:07:51.110Z,1004.85
2016-06-12T12:08:51.066Z,1004.84
2016-06-12T12:09:51.022Z,1004.84